createdAt,value
2022-09-14T00:01:59.480Z,99.90
2022-09-14T00:04:26.032Z,99.90
2022-09-14T00:06:52.426Z,99.90
2022-09-14T00:09:18.882Z,99.90
2022-09-14T00:11:45.283Z,99.90
2022-09-14T00:14:11.691Z,99.90
2022-09-14T00:16:38.115Z,99.90
2022-09-14T00:19:04.585Z,99.90
2022-09-14T00:21:30.962Z,99.90
2022-09-14T00:23:57.346Z,99.90
2022-09-14T00:26:23.741Z,99.90
2022-09-14T00:28:50.132Z,99.90
2022-09-14T00:31:16.604Z,99.90
2022-09-14T00:33:43.039Z,99.90
2022-09-14T00:36:09.479Z,99.90
2022-09-14T00:38:35.878Z,99.90
2022-09-14T00:41:02.276Z,99.90
2022-09-14T00:43:28.672Z,99.90
2022-09-14T00:45:55.115Z,99.90
2022-09-14T00:48:21.570Z,99.90
2022-09-14T00:50:47.964Z,99.90
2022-09-14T00:53:14.361Z,99.90
2022-09-14T00:55:40.735Z,99.90
2022-09-14T00:58:07.133Z,99.90
2022-09-14T01:00:33.509Z,99.90
2022-09-14T01:02:59.923Z,99.90
2022-09-14T01:05:26.333Z,99.90
2022-09-14T01:07:52.725Z,99.90
2022-09-14T01:10:20.465Z,99.90
2022-09-14T01:12:46.854Z,99.90
2022-09-14T01:15:13.261Z,99.90
2022-09-14T01:17:39.683Z,99.90
2022-09-14T01:20:06.056Z,99.90
2022-09-14T01:22:32.454Z,99.90
2022-09-14T01:24:58.904Z,99.90
2022-09-14T01:27:25.399Z,99.90
2022-09-14T01:29:51.776Z,99.90
2022-09-14T01:32:18.164Z,99.90
2022-09-14T01:34:44.544Z,99.90
2022-09-14T01:37:10.928Z,99.90
2022-09-14T01:39:37.358Z,99.90
2022-09-14T01:42:03.736Z,99.90
2022-09-14T01:44:30.160Z,99.90
2022-09-14T01:46:56.541Z,99.90
2022-09-14T01:49:22.943Z,99.90
2022-09-14T01:51:49.365Z,99.90
2022-09-14T01:54:15.759Z,99.90
2022-09-14T01:56:42.179Z,99.90
2022-09-14T01:59:08.578Z,99.90
2022-09-14T02:01:34.958Z,99.90
2022-09-14T02:04:01.363Z,99.90
2022-09-14T02:06:27.845Z,99.90
2022-09-14T02:08:54.255Z,99.90
2022-09-14T02:11:20.639Z,99.90
2022-09-14T02:13:47.101Z,99.90
2022-09-14T02:16:13.593Z,99.90
2022-09-14T02:18:40.039Z,99.90
2022-09-14T02:21:06.427Z,99.90
2022-09-14T02:23:32.825Z,99.90
2022-09-14T02:25:59.204Z,99.90
2022-09-14T02:28:25.608Z,99.90
2022-09-14T02:30:51.990Z,99.90
2022-09-14T02:33:18.382Z,99.90
2022-09-14T02:35:44.767Z,99.90
2022-09-14T02:38:11.149Z,99.90
2022-09-14T02:40:37.520Z,99.90
2022-09-14T02:43:03.892Z,99.90
2022-09-14T02:45:30.285Z,99.90
2022-09-14T02:47:56.658Z,99.90
2022-09-14T02:50:23.052Z,99.90
2022-09-14T02:52:49.436Z,99.90
2022-09-14T02:55:15.845Z,99.90
2022-09-14T02:57:42.228Z,99.90
2022-09-14T03:00:08.650Z,99.90
2022-09-14T03:02:35.019Z,99.90
2022-09-14T03:05:01.424Z,99.90
2022-09-14T03:07:27.824Z,99.90
2022-09-14T03:09:54.214Z,99.90
2022-09-14T03:12:20.617Z,99.90
2022-09-14T03:14:46.985Z,99.90
2022-09-14T03:17:13.381Z,99.90
2022-09-14T03:19:39.815Z,99.90
2022-09-14T03:22:06.194Z,99.90
2022-09-14T03:24:32.592Z,99.90
2022-09-14T03:26:58.956Z,99.90
2022-09-14T03:29:25.347Z,99.90
2022-09-14T03:31:51.772Z,99.90
2022-09-14T03:34:18.235Z,99.90
2022-09-14T03:36:44.646Z,99.90
2022-09-14T03:39:11.145Z,99.90
2022-09-14T03:41:37.514Z,99.90
2022-09-14T03:44:03.950Z,99.90
2022-09-14T03:46:30.418Z,99.90
2022-09-14T03:48:56.823Z,99.90
2022-09-14T03:51:23.216Z,99.90
2022-09-14T03:53:49.660Z,99.90
2022-09-14T03:56:16.062Z,99.90
2022-09-14T03:58:42.451Z,99.90
2022-09-14T04:01:08.873Z,99.90
2022-09-14T04:03:35.292Z,99.90
2022-09-14T04:06:01.953Z,99.90
2022-09-14T04:08:28.319Z,99.90
2022-09-14T04:10:54.725Z,99.90
2022-09-14T04:13:21.155Z,99.90
2022-09-14T04:15:47.578Z,99.90
2022-09-14T04:18:13.991Z,99.90
2022-09-14T04:20:40.377Z,99.90
2022-09-14T04:23:06.767Z,99.90
2022-09-14T04:25:33.159Z,99.90
2022-09-14T04:28:19.280Z,99.90
2022-09-14T04:30:45.915Z,99.90
2022-09-14T04:33:12.306Z,99.90
2022-09-14T04:35:38.689Z,99.90
2022-09-14T04:38:05.100Z,99.90
2022-09-14T04:40:31.611Z,99.90
2022-09-14T04:42:58.079Z,99.90
2022-09-14T04:45:24.469Z,99.90
2022-09-14T04:47:50.868Z,99.90
2022-09-14T04:50:17.253Z,99.90
2022-09-14T04:52:43.636Z,99.90
2022-09-14T04:55:10.134Z,99.90
2022-09-14T04:57:36.526Z,99.90
2022-09-14T05:00:02.941Z,99.90
2022-09-14T05:02:29.357Z,99.90
2022-09-14T05:04:55.758Z,99.90
2022-09-14T05:07:22.157Z,99.90
2022-09-14T05:09:48.550Z,99.90
2022-09-14T05:12:14.918Z,99.90
2022-09-14T05:14:41.358Z,99.90
2022-09-14T05:17:07.743Z,99.90
2022-09-14T05:19:34.156Z,99.90
2022-09-14T05:22:00.542Z,99.90
2022-09-14T05:24:26.910Z,99.90
2022-09-14T05:26:57.032Z,99.90
2022-09-14T05:29:25.954Z,99.90
2022-09-14T05:31:52.371Z,99.90
2022-09-14T05:34:18.743Z,99.90
2022-09-14T05:36:45.189Z,99.90
2022-09-14T05:39:11.574Z,99.90
2022-09-14T05:41:38.031Z,99.90
2022-09-14T05:44:04.432Z,99.90
2022-09-14T05:46:30.899Z,99.90
2022-09-14T05:48:57.336Z,99.90
2022-09-14T05:51:23.752Z,99.90
2022-09-14T05:53:50.236Z,99.90
2022-09-14T05:56:16.664Z,99.90
2022-09-14T05:58:43.074Z,99.90
2022-09-14T06:01:09.574Z,99.90
2022-09-14T06:03:35.953Z,99.90
2022-09-14T06:06:02.375Z,99.90
2022-09-14T06:08:28.776Z,99.90
2022-09-14T06:10:55.159Z,99.90
2022-09-14T06:13:21.572Z,99.90
2022-09-14T06:15:47.950Z,99.90
2022-09-14T06:18:14.350Z,99.90
2022-09-14T06:20:40.739Z,99.90
2022-09-14T06:23:07.146Z,99.90
2022-09-14T06:25:33.730Z,99.90
2022-09-14T06:28:00.118Z,99.90
2022-09-14T06:30:26.660Z,99.90
2022-09-14T06:32:53.086Z,99.90
2022-09-14T06:35:19.502Z,99.90
2022-09-14T06:37:45.894Z,99.90
2022-09-14T06:40:12.369Z,99.90
2022-09-14T06:42:38.830Z,99.90
2022-09-14T06:45:05.228Z,99.90
2022-09-14T06:47:31.626Z,99.90
2022-09-14T06:49:58.043Z,99.90
2022-09-14T06:52:24.439Z,99.90
2022-09-14T06:54:50.822Z,99.90
2022-09-14T06:57:17.238Z,99.90
2022-09-14T06:59:43.656Z,99.90
2022-09-14T07:02:10.047Z,99.90
2022-09-14T07:04:36.448Z,99.90
2022-09-14T07:07:02.841Z,99.90
2022-09-14T07:09:29.228Z,99.90
2022-09-14T07:11:55.668Z,99.90
2022-09-14T07:14:22.061Z,99.90
2022-09-14T07:16:48.437Z,99.90
2022-09-14T07:19:14.835Z,99.90
2022-09-14T07:21:41.216Z,99.90
2022-09-14T07:24:07.657Z,99.90
2022-09-14T07:26:34.060Z,99.90
2022-09-14T07:29:00.432Z,99.90
2022-09-14T07:31:26.922Z,99.90
2022-09-14T07:33:53.462Z,99.90
2022-09-14T07:36:19.857Z,99.90
2022-09-14T07:38:52.617Z,99.90
2022-09-14T07:41:27.496Z,99.90
2022-09-14T07:43:53.906Z,99.90
2022-09-14T07:46:20.368Z,99.90
2022-09-14T07:48:46.834Z,99.90
2022-09-14T07:51:13.269Z,99.90
2022-09-14T07:53:39.659Z,99.90
2022-09-14T07:56:06.092Z,99.60
2022-09-14T07:58:32.489Z,98.40
2022-09-14T08:00:58.967Z,97.30
2022-09-14T08:03:25.381Z,97.10
2022-09-14T08:05:51.779Z,96.10
2022-09-14T08:08:18.171Z,95.40
2022-09-14T08:10:44.565Z,93.70
2022-09-14T08:13:10.963Z,92.50
2022-09-14T08:15:37.376Z,91.80
2022-09-14T08:18:03.785Z,91.50
2022-09-14T08:20:30.186Z,90.70
2022-09-14T08:22:56.560Z,90.10
2022-09-14T08:25:22.963Z,88.80
2022-09-14T08:27:49.351Z,87.90
2022-09-14T08:30:15.742Z,87.00
2022-09-14T08:32:42.108Z,84.50
2022-09-14T08:35:08.521Z,82.60
2022-09-14T08:37:34.925Z,83.80
2022-09-14T08:40:01.355Z,81.80
2022-09-14T08:42:27.762Z,81.50
2022-09-14T08:44:54.212Z,82.10
2022-09-14T08:47:20.586Z,81.90
2022-09-14T08:49:46.977Z,81.50
2022-09-14T08:52:13.405Z,80.50
2022-09-14T08:54:39.821Z,79.10
2022-09-14T08:57:06.222Z,79.60
2022-09-14T08:59:32.590Z,78.80
2022-09-14T09:01:58.994Z,78.50
2022-09-14T09:04:29.269Z,78.00
2022-09-14T09:07:00.437Z,78.70
2022-09-14T09:09:27.537Z,78.60
2022-09-14T09:11:58.988Z,78.20
2022-09-14T09:14:27.849Z,76.90
2022-09-14T09:16:55.402Z,76.70
2022-09-14T09:22:04.776Z,75.70
2022-09-14T09:24:37.421Z,75.10
2022-09-14T09:27:08.464Z,75.10
2022-09-14T09:29:39.401Z,73.10
2022-09-14T09:32:07.221Z,72.50
2022-09-14T09:34:34.911Z,70.70
2022-09-14T09:37:05.026Z,70.80
2022-09-14T09:42:19.213Z,70.40
2022-09-14T09:44:47.412Z,70.90
2022-09-14T09:47:14.682Z,70.00
2022-09-14T09:49:43.944Z,70.40
2022-09-14T09:54:54.877Z,72.00
2022-09-14T10:02:43.326Z,71.70
2022-09-14T10:05:09.896Z,71.40
2022-09-14T10:07:36.550Z,71.30
2022-09-14T10:10:15.213Z,71.30
2022-09-14T10:12:42.570Z,70.80
2022-09-14T10:15:16.567Z,70.60
2022-09-14T10:23:07.218Z,70.50
2022-09-14T10:25:41.646Z,70.50
2022-09-14T10:28:08.390Z,68.70
2022-09-14T10:35:56.366Z,69.20
2022-09-14T10:38:24.827Z,69.70
2022-09-14T10:40:53.696Z,70.20
2022-09-14T10:43:20.623Z,71.00
2022-09-14T10:48:28.671Z,69.70
2022-09-14T10:50:55.991Z,70.40
2022-09-14T10:53:23.354Z,70.40
2022-09-14T10:55:49.901Z,70.80
2022-09-14T10:58:20.078Z,70.30
2022-09-14T11:03:30.226Z,70.20
2022-09-14T11:05:57.131Z,70.20
2022-09-14T11:11:07.013Z,70.90
2022-09-14T11:13:37.997Z,70.90
2022-09-14T11:16:04.650Z,71.30
2022-09-14T11:18:32.186Z,69.30
2022-09-14T11:20:59.405Z,67.90
2022-09-14T11:26:08.150Z,67.20
2022-09-14T11:28:38.716Z,67.10
2022-09-14T11:36:27.029Z,66.90
2022-09-14T11:38:54.872Z,66.90
2022-09-14T11:41:28.361Z,66.70
2022-09-14T11:44:08.389Z,66.80
2022-09-14T11:49:16.117Z,66.50
2022-09-14T11:51:43.709Z,66.80
2022-09-14T11:54:10.941Z,66.80
2022-09-14T11:59:18.650Z,66.40
2022-09-14T12:01:46.147Z,66.70
2022-09-14T12:04:16.757Z,66.80
2022-09-14T12:09:24.188Z,65.50
2022-09-14T12:11:51.580Z,65.20
2022-09-14T12:19:54.511Z,64.10
2022-09-14T12:22:22.104Z,63.50
2022-09-14T12:24:49.734Z,63.40
2022-09-14T12:27:16.430Z,63.10
2022-09-14T12:29:43.501Z,62.70
2022-09-14T12:32:10.331Z,62.20
2022-09-14T12:34:36.946Z,62.30
2022-09-14T12:37:05.639Z,62.10
2022-09-14T12:39:38.079Z,61.70
2022-09-14T12:42:06.579Z,61.30
2022-09-14T12:44:33.740Z,61.60
2022-09-14T12:47:11.061Z,60.50
2022-09-14T12:49:39.714Z,60.20
2022-09-14T12:54:51.173Z,61.40
2022-09-14T12:57:20.249Z,62.10
2022-09-14T12:59:47.378Z,63.10
2022-09-14T13:02:14.520Z,63.50
2022-09-14T13:04:43.207Z,64.30
2022-09-14T13:07:17.206Z,65.00
2022-09-14T13:09:45.782Z,65.20
2022-09-14T13:12:14.148Z,65.80
2022-09-14T13:14:42.957Z,67.30
2022-09-14T13:17:09.947Z,67.00
2022-09-14T13:19:37.202Z,67.10
2022-09-14T13:22:04.563Z,66.60
2022-09-14T13:24:32.912Z,66.60
2022-09-14T13:26:59.820Z,66.60
2022-09-14T13:29:27.134Z,66.90
2022-09-14T13:34:34.158Z,66.50
2022-09-14T13:37:01.710Z,67.20
2022-09-14T13:39:33.042Z,67.00
2022-09-14T13:41:59.788Z,67.20
2022-09-14T13:44:27.238Z,67.40
2022-09-14T13:46:55.937Z,67.10
2022-09-14T13:49:24.108Z,66.40
2022-09-14T13:54:31.776Z,65.70
2022-09-14T14:02:21.253Z,66.70
2022-09-14T14:04:48.893Z,66.60
2022-09-14T14:07:19.254Z,64.20
2022-09-14T14:09:45.944Z,65.70
2022-09-14T14:14:56.488Z,68.00
2022-09-14T14:17:30.776Z,68.70
2022-09-14T14:19:57.936Z,69.40
2022-09-14T14:22:25.876Z,69.40
2022-09-14T14:27:36.320Z,70.20
2022-09-14T14:30:03.619Z,70.60
2022-09-14T14:32:31.272Z,71.20
2022-09-14T14:34:59.526Z,71.50
2022-09-14T14:37:27.029Z,71.40
2022-09-14T14:39:54.438Z,71.30
2022-09-14T14:42:21.494Z,71.70
2022-09-14T14:44:49.028Z,71.70
2022-09-14T14:47:16.108Z,71.70
2022-09-14T14:49:55.066Z,72.10
2022-09-14T14:52:22.532Z,72.80
2022-09-14T14:54:49.291Z,73.00
2022-09-14T15:02:45.947Z,73.70
2022-09-14T21:06:52.917Z,99.90
2022-09-14T21:09:19.307Z,99.90
2022-09-14T21:11:45.820Z,99.90
2022-09-14T21:14:12.222Z,99.90
2022-09-14T21:16:38.749Z,99.90
2022-09-14T21:19:05.149Z,99.90
2022-09-14T21:21:31.586Z,99.90
2022-09-14T21:23:57.996Z,99.90
2022-09-14T21:26:24.369Z,99.90
2022-09-14T21:28:50.830Z,99.90
2022-09-14T21:31:17.489Z,99.90
2022-09-14T21:33:43.935Z,99.90
2022-09-14T21:36:10.357Z,99.90
2022-09-14T21:38:36.743Z,99.90
2022-09-14T21:41:03.186Z,99.90
2022-09-14T21:43:29.577Z,99.90
2022-09-14T21:45:55.989Z,99.90
2022-09-14T21:48:22.390Z,99.90
2022-09-14T21:50:48.850Z,99.90
2022-09-14T21:53:15.261Z,99.90
2022-09-14T21:55:41.683Z,99.90
2022-09-14T21:58:08.086Z,99.90
2022-09-14T22:00:34.464Z,99.90
2022-09-14T22:03:00.901Z,99.90
2022-09-14T22:05:27.325Z,99.90
2022-09-14T22:07:53.702Z,99.90
2022-09-14T22:10:20.118Z,99.90
2022-09-14T22:12:46.510Z,99.90
2022-09-14T22:15:12.881Z,99.90
2022-09-14T22:17:39.293Z,99.90
2022-09-14T22:20:05.734Z,99.90
2022-09-14T22:22:32.121Z,99.90
2022-09-14T22:24:58.544Z,99.90
2022-09-14T22:27:24.960Z,99.90
2022-09-14T22:29:51.388Z,99.90
2022-09-14T22:32:17.797Z,99.90
2022-09-14T22:34:48.817Z,99.90
2022-09-14T22:37:15.984Z,99.90
2022-09-14T22:39:42.412Z,99.90
2022-09-14T22:42:08.808Z,99.90
2022-09-14T22:44:35.220Z,99.90
2022-09-14T22:47:01.626Z,99.90
2022-09-14T22:49:28.026Z,99.90
2022-09-14T22:51:54.426Z,99.90
2022-09-14T22:54:20.822Z,99.90
2022-09-14T22:56:47.234Z,99.90
2022-09-14T22:59:13.643Z,99.90
2022-09-14T23:01:40.173Z,99.90
2022-09-14T23:04:06.685Z,99.90
2022-09-14T23:06:33.077Z,99.90
2022-09-14T23:08:59.469Z,99.90
2022-09-14T23:11:25.899Z,99.90
2022-09-14T23:13:52.286Z,99.90
2022-09-14T23:16:18.784Z,99.90
2022-09-14T23:18:45.321Z,99.90
2022-09-14T23:21:11.761Z,99.90
2022-09-14T23:23:38.159Z,99.90
2022-09-14T23:26:04.586Z,99.90
2022-09-14T23:28:30.971Z,99.90
2022-09-14T23:30:57.427Z,99.90
2022-09-14T23:33:23.858Z,99.90
2022-09-14T23:35:50.235Z,99.90
2022-09-14T23:38:16.690Z,99.90
2022-09-14T23:40:43.077Z,99.90
2022-09-14T23:43:09.499Z,99.90
2022-09-14T23:45:35.934Z,99.90
2022-09-14T23:48:02.327Z,99.90
2022-09-14T23:50:28.723Z,99.90
2022-09-14T23:52:55.124Z,99.90
2022-09-14T23:55:21.499Z,99.90
2022-09-14T23:57:47.902Z,99.90
